sensor_id;sensor_type;location;lat;lon;timestamp;P1;durP1;ratioP1;P2;durP2;ratioP2
12597;SDS011;6364;53.590;9.956;2023-04-24T00:01:10;15.00;;;12.02;;
12597;SDS011;6364;53.590;9.956;2023-04-24T00:03:35;14.80;;;12.27;;
12597;SDS011;6364;53.590;9.956;2023-04-24T00:06:01;16.20;;;12.93;;
12597;SDS011;6364;53.590;9.956;2023-04-24T00:08:27;17.30;;;13.30;;
12597;SDS011;6364;53.590;9.956;2023-04-24T00:10:53;16.50;;;13.43;;
12597;SDS011;6364;53.590;9.956;2023-04-24T00:13:18;19.42;;;13.75;;
12597;SDS011;6364;53.590;9.956;2023-04-24T00:15:43;18.15;;;13.60;;
12597;SDS011;6364;53.590;9.956;2023-04-24T00:18:09;16.52;;;12.90;;
12597;SDS011;6364;53.590;9.956;2023-04-24T00:20:34;15.40;;;13.60;;
12597;SDS011;6364;53.590;9.956;2023-04-24T00:23:00;16.17;;;13.23;;
12597;SDS011;6364;53.590;9.956;2023-04-24T00:25:29;17.20;;;13.55;;
12597;SDS011;6364;53.590;9.956;2023-04-24T00:27:54;17.55;;;13.30;;
12597;SDS011;6364;53.590;9.956;2023-04-24T00:30:19;16.45;;;13.07;;
12597;SDS011;6364;53.590;9.956;2023-04-24T00:32:45;17.23;;;12.68;;
12597;SDS011;6364;53.590;9.956;2023-04-24T00:35:10;15.55;;;12.93;;
12597;SDS011;6364;53.590;9.956;2023-04-24T00:37:35;14.55;;;12.02;;
12597;SDS011;6364;53.590;9.956;2023-04-24T00:40:01;14.95;;;12.57;;
12597;SDS011;6364;53.590;9.956;2023-04-24T00:42:26;17.02;;;13.43;;
12597;SDS011;6364;53.590;9.956;2023-04-24T00:44:51;15.57;;;12.07;;
12597;SDS011;6364;53.590;9.956;2023-04-24T00:47:17;14.30;;;11.63;;
12597;SDS011;6364;53.590;9.956;2023-04-24T00:49:43;16.63;;;12.88;;
12597;SDS011;6364;53.590;9.956;2023-04-24T00:52:09;18.60;;;12.38;;
12597;SDS011;6364;53.590;9.956;2023-04-24T00:54:35;17.58;;;13.02;;
12597;SDS011;6364;53.590;9.956;2023-04-24T00:57:02;16.63;;;12.85;;
12597;SDS011;6364;53.590;9.956;2023-04-24T00:59:27;18.13;;;13.35;;
12597;SDS011;6364;53.590;9.956;2023-04-24T01:01:53;15.55;;;13.30;;
12597;SDS011;6364;53.590;9.956;2023-04-24T01:04:18;14.85;;;13.05;;
12597;SDS011;6364;53.590;9.956;2023-04-24T01:06:44;15.77;;;12.65;;
12597;SDS011;6364;53.590;9.956;2023-04-24T01:09:10;14.23;;;12.13;;
12597;SDS011;6364;53.590;9.956;2023-04-24T01:11:36;12.57;;;10.93;;
12597;SDS011;6364;53.590;9.956;2023-04-24T01:14:02;13.15;;;10.93;;
12597;SDS011;6364;53.590;9.956;2023-04-24T01:16:27;13.27;;;11.88;;
12597;SDS011;6364;53.590;9.956;2023-04-24T01:18:53;14.10;;;11.35;;
12597;SDS011;6364;53.590;9.956;2023-04-24T01:21:18;14.02;;;11.15;;
12597;SDS011;6364;53.590;9.956;2023-04-24T01:23:46;16.33;;;10.45;;
12597;SDS011;6364;53.590;9.956;2023-04-24T01:26:11;15.02;;;10.93;;
12597;SDS011;6364;53.590;9.956;2023-04-24T01:28:37;12.15;;;10.18;;
12597;SDS011;6364;53.590;9.956;2023-04-24T01:31:03;13.75;;;10.65;;
12597;SDS011;6364;53.590;9.956;2023-04-24T01:33:28;14.68;;;9.98;;
12597;SDS011;6364;53.590;9.956;2023-04-24T01:35:53;12.75;;;10.25;;
12597;SDS011;6364;53.590;9.956;2023-04-24T01:38:19;12.20;;;9.60;;
12597;SDS011;6364;53.590;9.956;2023-04-24T01:40:44;10.50;;;8.93;;
12597;SDS011;6364;53.590;9.956;2023-04-24T01:43:10;11.25;;;8.88;;
12597;SDS011;6364;53.590;9.956;2023-04-24T01:45:36;10.50;;;8.48;;
12597;SDS011;6364;53.590;9.956;2023-04-24T01:48:01;10.77;;;8.43;;
12597;SDS011;6364;53.590;9.956;2023-04-24T01:50:27;8.15;;;7.03;;
12597;SDS011;6364;53.590;9.956;2023-04-24T01:52:52;9.00;;;7.28;;
12597;SDS011;6364;53.590;9.956;2023-04-24T01:55:19;9.48;;;7.22;;
12597;SDS011;6364;53.590;9.956;2023-04-24T01:57:44;8.10;;;6.72;;
12597;SDS011;6364;53.590;9.956;2023-04-24T02:00:10;6.78;;;5.57;;
12597;SDS011;6364;53.590;9.956;2023-04-24T02:02:36;5.45;;;4.60;;
12597;SDS011;6364;53.590;9.956;2023-04-24T02:05:02;5.38;;;4.75;;
12597;SDS011;6364;53.590;9.956;2023-04-24T02:07:28;5.70;;;4.70;;
12597;SDS011;6364;53.590;9.956;2023-04-24T02:09:53;4.90;;;4.40;;
12597;SDS011;6364;53.590;9.956;2023-04-24T02:12:18;4.32;;;3.92;;
12597;SDS011;6364;53.590;9.956;2023-04-24T02:14:44;5.22;;;3.83;;
12597;SDS011;6364;53.590;9.956;2023-04-24T02:17:09;3.63;;;3.33;;
12597;SDS011;6364;53.590;9.956;2023-04-24T02:19:37;4.93;;;3.83;;
12597;SDS011;6364;53.590;9.956;2023-04-24T02:22:02;3.92;;;3.40;;
12597;SDS011;6364;53.590;9.956;2023-04-24T02:24:27;6.30;;;3.60;;
12597;SDS011;6364;53.590;9.956;2023-04-24T02:26:53;4.35;;;3.38;;
12597;SDS011;6364;53.590;9.956;2023-04-24T02:29:18;5.75;;;4.03;;
12597;SDS011;6364;53.590;9.956;2023-04-24T02:31:43;5.65;;;4.07;;
12597;SDS011;6364;53.590;9.956;2023-04-24T02:34:08;5.53;;;3.58;;
12597;SDS011;6364;53.590;9.956;2023-04-24T02:36:34;3.67;;;3.00;;
12597;SDS011;6364;53.590;9.956;2023-04-24T02:38:59;4.10;;;2.88;;
12597;SDS011;6364;53.590;9.956;2023-04-24T02:41:25;6.47;;;2.97;;
12597;SDS011;6364;53.590;9.956;2023-04-24T02:43:56;4.20;;;3.13;;
12597;SDS011;6364;53.590;9.956;2023-04-24T02:46:21;4.15;;;3.75;;
12597;SDS011;6364;53.590;9.956;2023-04-24T02:48:46;4.07;;;3.67;;
12597;SDS011;6364;53.590;9.956;2023-04-24T02:51:12;5.60;;;3.83;;
12597;SDS011;6364;53.590;9.956;2023-04-24T02:53:37;7.00;;;3.65;;
12597;SDS011;6364;53.590;9.956;2023-04-24T02:56:02;5.72;;;3.90;;
12597;SDS011;6364;53.590;9.956;2023-04-24T02:58:27;4.85;;;3.97;;
12597;SDS011;6364;53.590;9.956;2023-04-24T03:00:53;4.40;;;3.83;;
12597;SDS011;6364;53.590;9.956;2023-04-24T03:03:20;5.95;;;4.22;;
12597;SDS011;6364;53.590;9.956;2023-04-24T03:05:46;5.78;;;3.72;;
12597;SDS011;6364;53.590;9.956;2023-04-24T03:08:12;5.43;;;3.83;;
12597;SDS011;6364;53.590;9.956;2023-04-24T03:10:37;4.30;;;3.28;;
12597;SDS011;6364;53.590;9.956;2023-04-24T03:13:03;3.63;;;3.33;;
12597;SDS011;6364;53.590;9.956;2023-04-24T03:15:28;3.85;;;3.40;;
12597;SDS011;6364;53.590;9.956;2023-04-24T03:17:54;3.70;;;3.05;;
12597;SDS011;6364;53.590;9.956;2023-04-24T03:20:20;3.35;;;3.05;;
12597;SDS011;6364;53.590;9.956;2023-04-24T03:22:45;6.25;;;3.30;;
12597;SDS011;6364;53.590;9.956;2023-04-24T03:25:10;3.30;;;3.00;;
12597;SDS011;6364;53.590;9.956;2023-04-24T03:27:36;3.40;;;3.10;;
12597;SDS011;6364;53.590;9.956;2023-04-24T03:30:01;5.82;;;3.15;;
12597;SDS011;6364;53.590;9.956;2023-04-24T03:32:27;3.40;;;3.10;;
12597;SDS011;6364;53.590;9.956;2023-04-24T03:34:52;3.78;;;3.33;;
12597;SDS011;6364;53.590;9.956;2023-04-24T03:37:18;3.30;;;3.00;;
12597;SDS011;6364;53.590;9.956;2023-04-24T03:39:43;6.05;;;3.17;;
12597;SDS011;6364;53.590;9.956;2023-04-24T03:42:08;6.18;;;3.20;;
12597;SDS011;6364;53.590;9.956;2023-04-24T03:44:34;3.88;;;3.08;;
12597;SDS011;6364;53.590;9.956;2023-04-24T03:47:00;4.32;;;3.00;;
12597;SDS011;6364;53.590;9.956;2023-04-24T03:49:25;5.82;;;3.50;;
12597;SDS011;6364;53.590;9.956;2023-04-24T03:51:50;4.70;;;3.60;;
12597;SDS011;6364;53.590;9.956;2023-04-24T03:54:17;5.70;;;3.30;;
12597;SDS011;6364;53.590;9.956;2023-04-24T03:56:42;7.47;;;3.25;;
12597;SDS011;6364;53.590;9.956;2023-04-24T03:59:07;5.57;;;3.20;;
12597;SDS011;6364;53.590;9.956;2023-04-24T04:01:33;6.38;;;3.17;;
12597;SDS011;6364;53.590;9.956;2023-04-24T04:04:01;5.18;;;3.60;;
12597;SDS011;6364;53.590;9.956;2023-04-24T04:06:27;4.53;;;3.53;;
12597;SDS011;6364;53.590;9.956;2023-04-24T04:08:53;5.72;;;3.40;;
12597;SDS011;6364;53.590;9.956;2023-04-24T04:11:18;4.05;;;2.95;;
12597;SDS011;6364;53.590;9.956;2023-04-24T04:13:44;3.83;;;2.90;;
12597;SDS011;6364;53.590;9.956;2023-04-24T04:16:10;3.47;;;2.85;;
12597;SDS011;6364;53.590;9.956;2023-04-24T04:18:35;3.30;;;2.60;;
12597;SDS011;6364;53.590;9.956;2023-04-24T04:21:01;4.80;;;3.08;;
12597;SDS011;6364;53.590;9.956;2023-04-24T04:23:26;4.25;;;2.33;;
12597;SDS011;6364;53.590;9.956;2023-04-24T04:25:53;2.55;;;2.35;;
12597;SDS011;6364;53.590;9.956;2023-04-24T04:28:18;4.13;;;2.40;;
12597;SDS011;6364;53.590;9.956;2023-04-24T04:30:44;2.70;;;2.30;;
12597;SDS011;6364;53.590;9.956;2023-04-24T04:33:10;4.18;;;2.40;;
12597;SDS011;6364;53.590;9.956;2023-04-24T04:35:35;3.38;;;2.40;;
12597;SDS011;6364;53.590;9.956;2023-04-24T04:38:01;3.58;;;2.13;;
12597;SDS011;6364;53.590;9.956;2023-04-24T04:40:26;2.90;;;2.40;;
12597;SDS011;6364;53.590;9.956;2023-04-24T04:42:53;5.40;;;2.50;;
12597;SDS011;6364;53.590;9.956;2023-04-24T04:45:18;2.55;;;2.08;;
12597;SDS011;6364;53.590;9.956;2023-04-24T04:47:45;2.83;;;2.30;;
12597;SDS011;6364;53.590;9.956;2023-04-24T04:50:11;3.70;;;2.63;;
12597;SDS011;6364;53.590;9.956;2023-04-24T04:52:36;4.80;;;2.42;;
12597;SDS011;6364;53.590;9.956;2023-04-24T04:55:02;4.57;;;2.85;;
12597;SDS011;6364;53.590;9.956;2023-04-24T04:57:27;4.03;;;2.95;;
12597;SDS011;6364;53.590;9.956;2023-04-24T04:59:52;4.53;;;2.45;;
12597;SDS011;6364;53.590;9.956;2023-04-24T05:02:18;3.40;;;2.10;;
12597;SDS011;6364;53.590;9.956;2023-04-24T05:04:43;1.90;;;1.80;;
12597;SDS011;6364;53.590;9.956;2023-04-24T05:07:08;5.20;;;2.05;;
12597;SDS011;6364;53.590;9.956;2023-04-24T05:09:34;2.28;;;1.85;;
12597;SDS011;6364;53.590;9.956;2023-04-24T05:11:59;2.20;;;2.00;;
12597;SDS011;6364;53.590;9.956;2023-04-24T05:14:25;3.85;;;2.28;;
12597;SDS011;6364;53.590;9.956;2023-04-24T05:16:50;2.92;;;1.80;;
12597;SDS011;6364;53.590;9.956;2023-04-24T05:19:15;4.05;;;1.92;;
12597;SDS011;6364;53.590;9.956;2023-04-24T05:21:41;3.42;;;2.30;;
12597;SDS011;6364;53.590;9.956;2023-04-24T05:24:06;3.75;;;2.00;;
12597;SDS011;6364;53.590;9.956;2023-04-24T05:26:32;2.60;;;1.90;;
12597;SDS011;6364;53.590;9.956;2023-04-24T05:28:57;5.28;;;1.90;;
12597;SDS011;6364;53.590;9.956;2023-04-24T05:31:22;2.30;;;2.10;;
12597;SDS011;6364;53.590;9.956;2023-04-24T05:33:47;2.85;;;2.33;;
12597;SDS011;6364;53.590;9.956;2023-04-24T05:36:13;3.05;;;2.30;;
12597;SDS011;6364;53.590;9.956;2023-04-24T05:38:38;2.47;;;1.98;;
12597;SDS011;6364;53.590;9.956;2023-04-24T05:41:03;3.25;;;1.75;;
12597;SDS011;6364;53.590;9.956;2023-04-24T05:43:29;3.03;;;2.15;;
12597;SDS011;6364;53.590;9.956;2023-04-24T05:45:54;2.83;;;2.15;;
12597;SDS011;6364;53.590;9.956;2023-04-24T05:48:20;2.10;;;1.90;;
12597;SDS011;6364;53.590;9.956;2023-04-24T05:50:46;2.20;;;1.88;;
12597;SDS011;6364;53.590;9.956;2023-04-24T05:53:12;2.58;;;1.95;;
12597;SDS011;6364;53.590;9.956;2023-04-24T05:55:38;3.70;;;2.53;;
12597;SDS011;6364;53.590;9.956;2023-04-24T05:58:03;3.58;;;2.17;;
12597;SDS011;6364;53.590;9.956;2023-04-24T06:00:28;2.95;;;2.40;;
12597;SDS011;6364;53.590;9.956;2023-04-24T06:02:54;4.38;;;2.40;;
12597;SDS011;6364;53.590;9.956;2023-04-24T06:05:20;2.95;;;2.63;;
12597;SDS011;6364;53.590;9.956;2023-04-24T06:07:45;4.18;;;2.35;;
12597;SDS011;6364;53.590;9.956;2023-04-24T06:10:10;6.72;;;2.45;;
12597;SDS011;6364;53.590;9.956;2023-04-24T06:12:36;2.75;;;2.33;;
12597;SDS011;6364;53.590;9.956;2023-04-24T06:15:02;2.60;;;2.20;;
12597;SDS011;6364;53.590;9.956;2023-04-24T06:17:28;5.88;;;2.70;;
12597;SDS011;6364;53.590;9.956;2023-04-24T06:19:53;3.17;;;2.55;;
12597;SDS011;6364;53.590;9.956;2023-04-24T06:22:19;5.20;;;2.90;;
12597;SDS011;6364;53.590;9.956;2023-04-24T06:24:44;5.45;;;3.00;;
12597;SDS011;6364;53.590;9.956;2023-04-24T06:27:09;4.85;;;2.83;;
12597;SDS011;6364;53.590;9.956;2023-04-24T06:29:35;4.78;;;2.80;;
12597;SDS011;6364;53.590;9.956;2023-04-24T06:32:01;4.60;;;2.30;;
12597;SDS011;6364;53.590;9.956;2023-04-24T06:34:26;3.78;;;2.28;;
12597;SDS011;6364;53.590;9.956;2023-04-24T06:36:51;5.28;;;2.30;;
12597;SDS011;6364;53.590;9.956;2023-04-24T06:39:17;5.63;;;2.50;;
12597;SDS011;6364;53.590;9.956;2023-04-24T06:41:42;5.57;;;2.70;;
12597;SDS011;6364;53.590;9.956;2023-04-24T06:44:07;4.68;;;2.53;;
12597;SDS011;6364;53.590;9.956;2023-04-24T06:46:33;14.35;;;3.55;;
12597;SDS011;6364;53.590;9.956;2023-04-24T06:48:58;6.57;;;2.92;;
12597;SDS011;6364;53.590;9.956;2023-04-24T06:51:23;4.22;;;2.40;;
12597;SDS011;6364;53.590;9.956;2023-04-24T06:53:49;3.28;;;2.72;;
12597;SDS011;6364;53.590;9.956;2023-04-24T06:56:16;4.85;;;2.80;;
12597;SDS011;6364;53.590;9.956;2023-04-24T06:58:41;2.63;;;2.33;;
12597;SDS011;6364;53.590;9.956;2023-04-24T07:03:42;4.13;;;2.22;;
12597;SDS011;6364;53.590;9.956;2023-04-24T07:06:07;3.38;;;2.67;;
12597;SDS011;6364;53.590;9.956;2023-04-24T07:08:33;3.20;;;2.65;;
12597;SDS011;6364;53.590;9.956;2023-04-24T07:10:59;3.00;;;2.65;;
12597;SDS011;6364;53.590;9.956;2023-04-24T07:13:24;2.67;;;2.47;;
12597;SDS011;6364;53.590;9.956;2023-04-24T07:15:50;4.15;;;3.03;;
12597;SDS011;6364;53.590;9.956;2023-04-24T07:18:17;5.50;;;3.20;;
12597;SDS011;6364;53.590;9.956;2023-04-24T07:20:43;4.10;;;2.92;;
12597;SDS011;6364;53.590;9.956;2023-04-24T07:23:08;5.68;;;3.10;;
12597;SDS011;6364;53.590;9.956;2023-04-24T07:25:33;4.43;;;3.30;;
12597;SDS011;6364;53.590;9.956;2023-04-24T07:27:59;3.15;;;2.85;;
12597;SDS011;6364;53.590;9.956;2023-04-24T07:30:24;4.55;;;3.40;;
12597;SDS011;6364;53.590;9.956;2023-04-24T07:32:49;5.97;;;3.72;;
12597;SDS011;6364;53.590;9.956;2023-04-24T07:35:15;7.90;;;3.67;;
12597;SDS011;6364;53.590;9.956;2023-04-24T07:37:40;4.70;;;3.67;;
12597;SDS011;6364;53.590;9.956;2023-04-24T07:40:10;4.03;;;3.63;;
12597;SDS011;6364;53.590;9.956;2023-04-24T07:42:37;5.13;;;4.10;;
12597;SDS011;6364;53.590;9.956;2023-04-24T07:45:03;4.13;;;3.72;;
12597;SDS011;6364;53.590;9.956;2023-04-24T07:47:29;6.10;;;4.15;;
12597;SDS011;6364;53.590;9.956;2023-04-24T07:49:54;6.75;;;4.40;;
12597;SDS011;6364;53.590;9.956;2023-04-24T07:52:19;5.95;;;4.57;;
12597;SDS011;6364;53.590;9.956;2023-04-24T07:54:45;5.50;;;4.80;;
12597;SDS011;6364;53.590;9.956;2023-04-24T07:57:10;6.50;;;5.03;;
12597;SDS011;6364;53.590;9.956;2023-04-24T07:59:37;5.07;;;4.47;;
12597;SDS011;6364;53.590;9.956;2023-04-24T08:02:02;7.25;;;4.88;;
12597;SDS011;6364;53.590;9.956;2023-04-24T08:04:28;5.72;;;5.20;;
12597;SDS011;6364;53.590;9.956;2023-04-24T08:06:53;5.38;;;4.80;;
12597;SDS011;6364;53.590;9.956;2023-04-24T08:09:18;5.40;;;4.90;;
12597;SDS011;6364;53.590;9.956;2023-04-24T08:11:44;7.93;;;4.85;;
12597;SDS011;6364;53.590;9.956;2023-04-24T08:14:09;7.45;;;4.78;;
12597;SDS011;6364;53.590;9.956;2023-04-24T08:16:37;5.30;;;4.80;;
12597;SDS011;6364;53.590;9.956;2023-04-24T08:19:02;6.80;;;5.30;;
12597;SDS011;6364;53.590;9.956;2023-04-24T08:21:28;6.38;;;5.50;;
12597;SDS011;6364;53.590;9.956;2023-04-24T08:23:53;7.00;;;5.15;;
12597;SDS011;6364;53.590;9.956;2023-04-24T08:26:18;5.95;;;5.40;;
12597;SDS011;6364;53.590;9.956;2023-04-24T08:28:44;6.03;;;5.30;;
12597;SDS011;6364;53.590;9.956;2023-04-24T08:31:09;6.53;;;5.50;;
12597;SDS011;6364;53.590;9.956;2023-04-24T08:33:35;7.30;;;6.05;;
12597;SDS011;6364;53.590;9.956;2023-04-24T08:36:01;8.30;;;5.57;;
12597;SDS011;6364;53.590;9.956;2023-04-24T08:38:27;6.80;;;5.55;;
12597;SDS011;6364;53.590;9.956;2023-04-24T08:40:53;6.30;;;5.70;;
12597;SDS011;6364;53.590;9.956;2023-04-24T08:43:18;7.20;;;6.00;;
12597;SDS011;6364;53.590;9.956;2023-04-24T08:45:46;10.05;;;5.85;;
12597;SDS011;6364;53.590;9.956;2023-04-24T08:48:12;9.20;;;6.38;;
12597;SDS011;6364;53.590;9.956;2023-04-24T08:50:37;8.18;;;6.10;;
12597;SDS011;6364;53.590;9.956;2023-04-24T08:53:03;8.63;;;6.07;;
12597;SDS011;6364;53.590;9.956;2023-04-24T08:55:29;8.45;;;5.97;;
12597;SDS011;6364;53.590;9.956;2023-04-24T08:57:55;8.48;;;6.07;;
12597;SDS011;6364;53.590;9.956;2023-04-24T09:00:21;9.48;;;6.65;;
12597;SDS011;6364;53.590;9.956;2023-04-24T09:02:47;7.30;;;6.60;;
12597;SDS011;6364;53.590;9.956;2023-04-24T09:05:14;8.32;;;6.60;;
12597;SDS011;6364;53.590;9.956;2023-04-24T09:07:44;11.35;;;6.45;;
12597;SDS011;6364;53.590;9.956;2023-04-24T09:10:11;9.70;;;6.57;;
12597;SDS011;6364;53.590;9.956;2023-04-24T09:12:37;9.65;;;6.47;;
12597;SDS011;6364;53.590;9.956;2023-04-24T09:15:02;10.77;;;6.35;;
12597;SDS011;6364;53.590;9.956;2023-04-24T09:17:30;7.88;;;7.07;;
12597;SDS011;6364;53.590;9.956;2023-04-24T09:19:55;11.50;;;6.65;;
12597;SDS011;6364;53.590;9.956;2023-04-24T09:22:21;7.97;;;6.40;;
12597;SDS011;6364;53.590;9.956;2023-04-24T09:24:46;8.02;;;6.10;;
12597;SDS011;6364;53.590;9.956;2023-04-24T09:27:12;7.47;;;6.70;;
12597;SDS011;6364;53.590;9.956;2023-04-24T09:29:38;8.40;;;6.53;;
12597;SDS011;6364;53.590;9.956;2023-04-24T09:32:20;8.05;;;6.45;;
12597;SDS011;6364;53.590;9.956;2023-04-24T09:34:47;8.25;;;7.10;;
12597;SDS011;6364;53.590;9.956;2023-04-24T09:37:18;8.20;;;6.10;;
12597;SDS011;6364;53.590;9.956;2023-04-24T09:42:37;13.25;;;6.40;;
12597;SDS011;6364;53.590;9.956;2023-04-24T09:45:03;7.50;;;6.63;;
12597;SDS011;6364;53.590;9.956;2023-04-24T09:47:35;7.20;;;6.35;;
12597;SDS011;6364;53.590;9.956;2023-04-24T09:50:08;9.30;;;7.03;;
12597;SDS011;6364;53.590;9.956;2023-04-24T09:52:41;7.50;;;6.30;;
12597;SDS011;6364;53.590;9.956;2023-04-24T09:55:25;9.45;;;7.43;;
12597;SDS011;6364;53.590;9.956;2023-04-24T09:57:52;10.05;;;7.90;;
12597;SDS011;6364;53.590;9.956;2023-04-24T10:00:22;8.98;;;7.53;;
12597;SDS011;6364;53.590;9.956;2023-04-24T10:05:31;8.68;;;7.47;;
12597;SDS011;6364;53.590;9.956;2023-04-24T10:07:59;10.52;;;7.82;;
12597;SDS011;6364;53.590;9.956;2023-04-24T10:10:28;11.98;;;9.05;;
12597;SDS011;6364;53.590;9.956;2023-04-24T10:12:53;11.38;;;8.25;;
12597;SDS011;6364;53.590;9.956;2023-04-24T10:15:19;13.13;;;9.50;;
12597;SDS011;6364;53.590;9.956;2023-04-24T10:17:47;12.27;;;9.82;;
12597;SDS011;6364;53.590;9.956;2023-04-24T10:20:17;14.98;;;9.60;;
12597;SDS011;6364;53.590;9.956;2023-04-24T10:22:53;11.70;;;9.65;;
12597;SDS011;6364;53.590;9.956;2023-04-24T10:25:20;13.43;;;10.23;;
12597;SDS011;6364;53.590;9.956;2023-04-24T10:27:46;16.42;;;10.25;;
12597;SDS011;6364;53.590;9.956;2023-04-24T10:30:13;13.02;;;10.18;;
12597;SDS011;6364;53.590;9.956;2023-04-24T10:32:38;12.93;;;10.50;;
12597;SDS011;6364;53.590;9.956;2023-04-24T10:35:05;15.52;;;10.38;;
12597;SDS011;6364;53.590;9.956;2023-04-24T10:37:35;13.32;;;9.60;;
12597;SDS011;6364;53.590;9.956;2023-04-24T10:40:02;12.70;;;10.20;;
12597;SDS011;6364;53.590;9.956;2023-04-24T10:42:28;15.95;;;10.52;;
12597;SDS011;6364;53.590;9.956;2023-04-24T10:44:53;14.80;;;10.82;;
12597;SDS011;6364;53.590;9.956;2023-04-24T10:47:20;17.40;;;11.82;;
12597;SDS011;6364;53.590;9.956;2023-04-24T10:49:45;16.88;;;12.02;;
12597;SDS011;6364;53.590;9.956;2023-04-24T10:52:11;15.27;;;11.63;;
12597;SDS011;6364;53.590;9.956;2023-04-24T10:59:47;15.38;;;10.95;;
12597;SDS011;6364;53.590;9.956;2023-04-24T11:02:14;16.02;;;11.20;;
12597;SDS011;6364;53.590;9.956;2023-04-24T11:04:40;13.75;;;10.82;;
12597;SDS011;6364;53.590;9.956;2023-04-24T11:07:07;14.93;;;11.00;;
12597;SDS011;6364;53.590;9.956;2023-04-24T11:09:34;13.02;;;9.88;;
12597;SDS011;6364;53.590;9.956;2023-04-24T11:12:08;16.08;;;10.90;;
12597;SDS011;6364;53.590;9.956;2023-04-24T11:17:30;19.23;;;12.15;;
12597;SDS011;6364;53.590;9.956;2023-04-24T11:20:03;15.77;;;10.88;;
12597;SDS011;6364;53.590;9.956;2023-04-24T11:22:32;15.93;;;11.13;;
12597;SDS011;6364;53.590;9.956;2023-04-24T11:25:00;16.05;;;11.07;;
12597;SDS011;6364;53.590;9.956;2023-04-24T11:27:32;15.68;;;10.30;;
12597;SDS011;6364;53.590;9.956;2023-04-24T11:30:07;13.88;;;9.88;;
12597;SDS011;6364;53.590;9.956;2023-04-24T11:35:01;14.27;;;9.68;;
12597;SDS011;6364;53.590;9.956;2023-04-24T11:37:28;19.17;;;9.80;;
12597;SDS011;6364;53.590;9.956;2023-04-24T11:39:55;15.70;;;10.40;;
12597;SDS011;6364;53.590;9.956;2023-04-24T11:42:22;16.23;;;10.90;;
12597;SDS011;6364;53.590;9.956;2023-04-24T11:44:48;15.75;;;11.00;;
12597;SDS011;6364;53.590;9.956;2023-04-24T11:47:14;16.42;;;10.02;;
12597;SDS011;6364;53.590;9.956;2023-04-24T11:49:40;12.13;;;9.50;;
12597;SDS011;6364;53.590;9.956;2023-04-24T11:52:05;11.77;;;10.10;;
12597;SDS011;6364;53.590;9.956;2023-04-24T11:54:31;12.82;;;9.80;;
12597;SDS011;6364;53.590;9.956;2023-04-24T11:56:56;14.48;;;9.73;;
12597;SDS011;6364;53.590;9.956;2023-04-24T11:59:22;13.15;;;9.88;;
12597;SDS011;6364;53.590;9.956;2023-04-24T12:01:48;12.68;;;9.80;;
12597;SDS011;6364;53.590;9.956;2023-04-24T12:04:14;11.80;;;8.18;;
12597;SDS011;6364;53.590;9.956;2023-04-24T12:06:58;13.90;;;8.40;;
12597;SDS011;6364;53.590;9.956;2023-04-24T12:11:56;9.32;;;7.25;;
12597;SDS011;6364;53.590;9.956;2023-04-24T12:14:22;10.50;;;7.55;;
12597;SDS011;6364;53.590;9.956;2023-04-24T12:16:48;10.80;;;7.75;;
12597;SDS011;6364;53.590;9.956;2023-04-24T12:19:23;10.23;;;7.85;;
12597;SDS011;6364;53.590;9.956;2023-04-24T12:21:59;10.82;;;7.38;;
12597;SDS011;6364;53.590;9.956;2023-04-24T12:24:25;8.30;;;6.68;;
12597;SDS011;6364;53.590;9.956;2023-04-24T12:26:50;9.00;;;6.93;;
12597;SDS011;6364;53.590;9.956;2023-04-24T12:29:19;9.65;;;7.50;;
12597;SDS011;6364;53.590;9.956;2023-04-24T12:31:45;11.10;;;7.30;;
12597;SDS011;6364;53.590;9.956;2023-04-24T12:34:20;11.18;;;7.35;;
12597;SDS011;6364;53.590;9.956;2023-04-24T12:36:47;11.95;;;8.27;;
12597;SDS011;6364;53.590;9.956;2023-04-24T12:39:16;11.65;;;8.15;;
12597;SDS011;6364;53.590;9.956;2023-04-24T12:41:54;9.60;;;7.57;;
12597;SDS011;6364;53.590;9.956;2023-04-24T12:44:31;10.48;;;8.07;;
12597;SDS011;6364;53.590;9.956;2023-04-24T12:46:59;9.85;;;7.35;;
12597;SDS011;6364;53.590;9.956;2023-04-24T12:49:25;10.07;;;8.00;;
12597;SDS011;6364;53.590;9.956;2023-04-24T12:51:50;12.05;;;8.18;;
12597;SDS011;6364;53.590;9.956;2023-04-24T12:54:16;9.57;;;8.15;;
12597;SDS011;6364;53.590;9.956;2023-04-24T12:56:41;11.07;;;8.10;;
12597;SDS011;6364;53.590;9.956;2023-04-24T12:59:06;10.73;;;8.73;;
12597;SDS011;6364;53.590;9.956;2023-04-24T13:01:32;12.05;;;7.97;;
12597;SDS011;6364;53.590;9.956;2023-04-24T13:03:57;10.60;;;8.38;;
12597;SDS011;6364;53.590;9.956;2023-04-24T13:06:22;10.93;;;7.70;;
12597;SDS011;6364;53.590;9.956;2023-04-24T13:08:48;10.00;;;7.90;;
12597;SDS011;6364;53.590;9.956;2023-04-24T13:11:13;9.90;;;7.75;;
12597;SDS011;6364;53.590;9.956;2023-04-24T13:13:39;9.18;;;8.27;;
12597;SDS011;6364;53.590;9.956;2023-04-24T13:16:04;9.27;;;7.68;;
12597;SDS011;6364;53.590;9.956;2023-04-24T13:18:30;9.93;;;7.60;;
12597;SDS011;6364;53.590;9.956;2023-04-24T13:20:55;9.20;;;7.72;;
12597;SDS011;6364;53.590;9.956;2023-04-24T13:23:21;9.75;;;7.63;;
12597;SDS011;6364;53.590;9.956;2023-04-24T13:25:47;10.07;;;7.00;;
12597;SDS011;6364;53.590;9.956;2023-04-24T13:28:13;7.68;;;6.25;;
12597;SDS011;6364;53.590;9.956;2023-04-24T13:30:38;7.32;;;6.63;;
12597;SDS011;6364;53.590;9.956;2023-04-24T13:33:03;7.55;;;6.45;;
12597;SDS011;6364;53.590;9.956;2023-04-24T13:35:29;11.45;;;6.15;;
12597;SDS011;6364;53.590;9.956;2023-04-24T13:37:54;7.05;;;6.30;;
12597;SDS011;6364;53.590;9.956;2023-04-24T13:40:20;7.57;;;6.78;;
12597;SDS011;6364;53.590;9.956;2023-04-24T13:42:45;8.85;;;6.85;;
12597;SDS011;6364;53.590;9.956;2023-04-24T13:45:10;7.80;;;7.00;;
12597;SDS011;6364;53.590;9.956;2023-04-24T13:47:36;7.40;;;6.70;;
12597;SDS011;6364;53.590;9.956;2023-04-24T13:50:01;7.88;;;6.72;;
12597;SDS011;6364;53.590;9.956;2023-04-24T13:52:27;8.90;;;6.25;;
12597;SDS011;6364;53.590;9.956;2023-04-24T13:54:53;9.52;;;7.15;;
12597;SDS011;6364;53.590;9.956;2023-04-24T13:57:18;8.05;;;7.10;;
12597;SDS011;6364;53.590;9.956;2023-04-24T13:59:43;9.50;;;7.25;;
12597;SDS011;6364;53.590;9.956;2023-04-24T14:02:10;8.50;;;6.95;;
12597;SDS011;6364;53.590;9.956;2023-04-24T14:04:35;7.95;;;7.05;;
12597;SDS011;6364;53.590;9.956;2023-04-24T14:07:00;9.10;;;7.05;;
12597;SDS011;6364;53.590;9.956;2023-04-24T14:09:26;8.00;;;6.70;;
12597;SDS011;6364;53.590;9.956;2023-04-24T14:11:51;6.60;;;5.90;;
12597;SDS011;6364;53.590;9.956;2023-04-24T14:14:17;7.60;;;6.78;;
12597;SDS011;6364;53.590;9.956;2023-04-24T14:16:42;6.85;;;6.10;;
12597;SDS011;6364;53.590;9.956;2023-04-24T14:19:07;7.00;;;6.22;;
12597;SDS011;6364;53.590;9.956;2023-04-24T14:21:33;8.43;;;6.55;;
12597;SDS011;6364;53.590;9.956;2023-04-24T14:23:58;7.63;;;6.25;;
12597;SDS011;6364;53.590;9.956;2023-04-24T14:26:23;7.10;;;6.00;;
12597;SDS011;6364;53.590;9.956;2023-04-24T14:28:49;7.13;;;6.43;;
12597;SDS011;6364;53.590;9.956;2023-04-24T14:31:15;9.75;;;7.10;;
12597;SDS011;6364;53.590;9.956;2023-04-24T14:33:41;7.63;;;6.82;;
12597;SDS011;6364;53.590;9.956;2023-04-24T14:36:09;8.98;;;7.32;;
12597;SDS011;6364;53.590;9.956;2023-04-24T14:38:34;10.02;;;9.02;;
12597;SDS011;6364;53.590;9.956;2023-04-24T14:40:59;11.05;;;9.98;;
12597;SDS011;6364;53.590;9.956;2023-04-24T14:43:26;11.63;;;9.75;;
12597;SDS011;6364;53.590;9.956;2023-04-24T14:45:51;12.98;;;10.98;;
12597;SDS011;6364;53.590;9.956;2023-04-24T14:48:16;14.55;;;12.02;;
12597;SDS011;6364;53.590;9.956;2023-04-24T14:50:42;15.15;;;12.30;;
12597;SDS011;6364;53.590;9.956;2023-04-24T14:53:07;15.70;;;12.52;;
12597;SDS011;6364;53.590;9.956;2023-04-24T14:55:33;17.95;;;14.88;;
12597;SDS011;6364;53.590;9.956;2023-04-24T14:58:28;19.80;;;14.77;;
12597;SDS011;6364;53.590;9.956;2023-04-24T15:00:53;19.77;;;16.00;;
12597;SDS011;6364;53.590;9.956;2023-04-24T15:03:19;18.50;;;14.98;;
12597;SDS011;6364;53.590;9.956;2023-04-24T15:05:45;19.20;;;14.45;;
12597;SDS011;6364;53.590;9.956;2023-04-24T15:08:10;13.98;;;11.70;;